Terminal Aerodrome Forecast
Issued by NWS

Home | Current Version | Previous Version | Text Only | Print | Product List | Glossary On
Versions: 1 2 3 4 5 6 7 8 9 10 11 12 13 14 15 16 17 18 19
964
FTUS43 KILX 220526
TAFCMI
TAF
KCMI 220526Z 2206/2306 20010KT P6SM OVC050
      TEMPO 2206/2210 4SM TSRA BR OVC040CB
     FM221000 22007KT 5SM SHRA BR OVC030
      TEMPO 2210/2213 4SM TSRA BR OVC025CB
     FM221300 22006KT 4SM BR OVC012
     FM221600 29009KT P6SM BKN030
     FM221800 32010KT P6SM SCT050
     FM230100 34006KT P6SM FEW250=

USA.gov is the U.S. government's official web portal to all federal, state and local government web resources and services.